Pagina principale
METAR-TAF:

METAR-TAF

Aeroporti :

Aeroporto di Cuneo-Levaldigi

Cuneo, Italia

latitudine: 44-32-47N, longitudine: 007-37-20E, altezza: 386 m

Osservazione

Il bollettino è stato emesso 5 ore e 15 minuti fa, alle 20:50 UTC
Vento 3 kt da sud
Temperature 7°C
Umidità 93%
Pressione 1022 hPa
Visibilità: 5000 m
foschia

METAR: LIMZ 232050Z 18003KT 5000 BR NSC 07/06 Q1022

Ora: 03:05 (02:05 UTC)

Previsione

Il bollettino è stato emesso 9 ore e 5 minuti fa, alle 17:00 UTC
Previsione valida dal 23 alle 18 UTC al 24 alle 18 UTC
Vento 5 kt da direzioni variabili
Visibilità: 8000 m
Evoluzione graduale
dal 23 alle 20 UTC al 23 alle 22 UTC
Visibilità: 2000 m
foschia
Evoluzione graduale
dal 24 alle 08 UTC al 24 alle 10 UTC
Visibilità: 8000 m

TAF: LIMZ 231700Z 2318/2418 VRB05KT 8000 NSC BECMG 2320/2322 2000 BR BECMG 2408/2410 8000

Osservazioni e previsioni meteorologiche di più di 4000 aeroporti (messaggi METAR e TAF).

Le stazioni disponibili sono rappresentate dai dischi gialli e rossi sulla carta.

Puntare il mouse per vedere il nome della stazione.

Clicca sopra per visualizzare le osservazioni e previsioni meteorologiche.

Per cambiare la mappa : fare clic sui pulsanti verdi con una croce nera per ingrandire, il pulsante verde con un trattino per diminuire, o sulla freccia verde per le mappe adiacenti.


METAR-TAF: